Raymond, CA

4:38 PM PDT en Mayo 22, 2015 (GMT -0700)
Silver Bar RD | | Change Station
CLOSE
Current Station
Estación meteorológica personal
Location: Mariposa, CA
Altura: 1929 ft
Estaciones meteorológicas cercanas

Alt 1929 ft 37.43 °N, 119.93 °W | Updated 5 seconds ago

Parcialmente nublado
Parcialmente nublado
65.3 ° F
Sensación térmica 65.3 ° F
N
0.4
Viento Variable Viento desde SO
Gusts 2.5 mph

Hoy
Alta -- | Baja -- ° F
--% Posibilidad de precipitaciones
Ayer
Alta -- | Baja -- ° F
Precip. -- pul
5:46 AM 8:07 PM
Creciente, 25% visible
Presión 29.96 pul
Visibilidad 10.0 Millas
Nubes Nublado 8500 ft
Punto de rocío 47 ° F
Humedad 52%
Precipitaciones 0.00 pul
Espesor de la nieve No disponible.
UV 2.0 de una escala de 12
Polen 2.10 de una escala de 12
Calidad del aire No disponible.
Flu Activity Sporadic
METAR KMAE 222253Z AUTO 34003KT 10SM OVC085 23/08 A2997 RMK AO2 SLP145 T02330078

More Conditions Fewer Conditions

Presión 29.96 pul
Visibilidad 10.0 Millas
Nubes Nublado 8500 ft
Punto de rocío 47 ° F
Humedad 52%
Precipitaciones 0.00 pul
Espesor de la nieve No disponible.
UV 2.0 de una escala de 12
Polen 2.10 de una escala de 12
Calidad del aire No disponible.
Flu Activity Sporadic
METAR KMAE 222253Z AUTO 34003KT 10SM OVC085 23/08 A2997 RMK AO2 SLP145 T02330078

More Conditions Fewer Conditions

10-Day Weather Forecast

Almanac

Astronomía

May. 22, 2015 Salida Puesta
Hora real
Crepúsculo civil
Crepúsculo náutico
Crepúsculo astronómico
Luna
Horas de luz
Horas de luz
Tomorrow will be .
, % of the Moon is Illuminated

Extremos de hoy

Máximos del estado Bajos del estado

Community

WunderPhotos

Upload Photos

1,823,333 ¡fotos cargadas!

WunderBlogs® & News

Nearby

Calidad del aire

  Calidad del aire Índice AQ Contaminante
Not available.

Grosos de nieve

Estación Profundido Altura

Actividad de terremotos

Ciudad Distance Mag. Tiempo y dato
Magnitud mínima muestra es 2,5.

Temperaturas de aguas costeras

Lugar Temperatura

Stations

Estaciones meteorológicas cercanas

Ubicación de la estación Temp. Vientos helados Punto de rocío Humedad Viento Precip. Alt Actualizado Tipo